Wiley Ford, West Virginia
Current Conditions -  °F | °C
As of 8:33 PM on Thursday 27 Nov 2014 (Local Time) from KCBE Reporting Station
Scattered Clouds Scattered Clouds  
Wind Chill: 26°   Ceiling: Unl
Heat Index: 34°   Visibility: 10mi
Dew Point: 23°   Wind: 9mph
Humidity: 65%   Direction: 300°WNW
Pressure: 30.22"   Gusts: NA
Location:  39.62°N, 78.77°W
Report Text: KCBE 280133Z AUTO 30008KT 10SM SCT085 01/M05 A3022 RMK AO1
Loading
Personal Weather Stations






























Interactive Weather Map New forecast layout! Learn more

10-Day Weather Forecast

Advertisements
Track Severe Weather on mobile